Time;durP1;ratioP1;P1;durP2;ratioP2;P2;SDS_P1;SDS_P2;PMS_P1;PMS_P2;Temp;Humidity;BMP_temperature;BMP_pressure;BME280_temperature;BME280_humidity;BME280_pressure;Samples;Min_cycle;Max_cycle;Signal;HPM_P1;HPM_P2
2022/12/31 00:00:33;;;;;;;;;;;1.70;86.90;;;0.28;80.97;97150.69;5070430;28;19927;-88
2022/12/31 00:03:01;;;;;;;;;;;1.70;86.90;;;0.30;80.87;97154.91;5070398;28;19920;-88
2022/12/31 00:05:31;;;;;;;;;;;1.70;86.90;;;0.28;81.11;97151.53;5069943;28;19921;-88
2022/12/31 00:08:00;;;;;;;;;;;1.70;86.90;;;0.28;80.81;97162.31;5070426;28;19920;-88
2022/12/31 00:10:28;;;;;;;;;;;1.70;86.90;;;0.29;81.11;97163.13;5053536;28;19927;-88
2022/12/31 00:12:56;;;;;;;;;;;1.70;86.90;;;0.30;80.91;97154.03;5070332;28;19920;-88
2022/12/31 00:15:24;;;;;;;;;;;1.70;86.90;;;0.29;80.69;97158.59;5053057;28;19920;-88
2022/12/31 00:17:52;;;;;;;;;;;1.70;86.90;;;0.28;81.05;97161.47;5070176;28;19920;-88
2022/12/31 00:20:20;;;;;;;;;;;1.70;86.90;;;0.29;80.75;97169.38;5070023;28;20097;-89
2022/12/31 00:22:49;;;;;;;;;;;1.70;86.90;;;0.30;81.14;97173.75;5070541;28;19921;-88
2022/12/31 00:25:17;;;;;;;;;;;1.70;86.90;;;0.29;81.02;97179.31;5069929;28;19920;-88
2022/12/31 00:27:45;;;;;;;;;;;1.70;86.90;;;0.28;81.05;97177.63;5071065;28;19921;-88
2022/12/31 00:30:14;;;;;;;;;;;1.70;86.90;;;0.29;81.15;97177.47;5054207;28;19920;-87
2022/12/31 00:32:42;;;;;;;;;;;1.70;86.90;;;0.28;80.84;97167.69;5071432;28;19927;-88
2022/12/31 00:35:10;;;;;;;;;;;1.70;86.90;;;0.30;80.97;97172.91;5054065;28;19924;-88
2022/12/31 00:37:38;;;;;;;;;;;1.70;86.90;;;0.29;80.94;97184.69;5073478;28;19921;-88
2022/12/31 00:40:09;;;;;;;;;;;1.70;86.90;;;0.29;80.79;97184.69;5056576;28;20093;-88
2022/12/31 00:42:37;;;;;;;;;;;1.70;86.90;;;0.27;81.20;97184.88;5073546;28;20116;-89
2022/12/31 00:45:06;;;;;;;;;;;1.70;86.90;;;0.28;81.05;97183.88;5073062;28;20242;-88
2022/12/31 00:47:34;;;;;;;;;;;1.70;86.90;;;0.28;80.84;97186.56;5056731;28;19921;-88
2022/12/31 00:50:02;;;;;;;;;;;1.70;86.90;;;0.30;80.86;97181.84;5056460;28;20223;-89
2022/12/31 00:52:30;;;;;;;;;;;1.70;86.90;;;0.28;81.26;97183.00;5073319;28;19920;-88
2022/12/31 00:54:58;;;;;;;;;;;1.70;86.90;;;0.27;80.94;97182.19;5072839;28;20198;-88
2022/12/31 00:57:27;;;;;;;;;;;1.60;86.90;;;0.28;80.85;97189.25;5056654;28;19927;-87
2022/12/31 00:59:55;;;;;;;;;;;1.70;87.10;;;0.30;81.32;97192.59;5073069;28;19920;-88
2022/12/31 01:02:23;;;;;;;;;;;1.70;87.00;;;0.28;81.00;97199.16;5056603;28;19942;-89
2022/12/31 01:04:51;;;;;;;;;;;1.70;87.10;;;0.29;81.15;97196.31;5072742;28;19928;-88
2022/12/31 01:07:19;;;;;;;;;;;1.70;87.10;;;0.29;80.97;97193.63;5073010;28;19924;-88
2022/12/31 01:09:47;;;;;;;;;;;1.70;87.10;;;0.29;81.31;97201.69;5072794;28;20124;-88
2022/12/31 01:12:15;;;;;;;;;;;1.70;87.10;;;0.27;81.08;97192.97;5072988;28;19928;-88
2022/12/31 01:14:44;;;;;;;;;;;1.70;87.10;;;0.29;81.14;97200.84;5072615;28;19927;-88
2022/12/31 01:17:13;;;;;;;;;;;1.70;87.10;;;0.29;81.18;97201.69;5072772;28;19920;-87
2022/12/31 01:19:41;;;;;;;;;;;1.70;87.10;;;0.30;81.34;97197.13;5072859;28;20230;-88
2022/12/31 01:22:09;;;;;;;;;;;1.70;87.00;;;0.30;81.04;97199.81;5056078;28;19920;-88
2022/12/31 01:24:36;;;;;;;;;;;1.70;87.00;;;0.30;81.07;97198.00;5055889;28;19928;-88
2022/12/31 01:27:04;;;;;;;;;;;1.70;87.00;;;0.29;81.06;97199.00;5056284;28;19920;-87
2022/12/31 01:29:32;;;;;;;;;;;1.70;87.00;;;0.29;81.23;97190.94;5055775;28;19920;-87
2022/12/31 01:32:02;;;;;;;;;;;1.70;87.00;;;0.28;81.08;97188.41;5072615;28;19959;-87
2022/12/31 01:34:30;;;;;;;;;;;1.70;86.90;;;0.30;80.88;97189.06;5072636;28;19942;-88
2022/12/31 01:36:57;;;;;;;;;;;1.70;86.90;;;0.30;80.97;97191.75;5055733;28;19921;-88
2022/12/31 01:39:26;;;;;;;;;;;1.70;86.90;;;0.28;80.82;97189.25;5089436;28;19928;-88
2022/12/31 01:41:53;;;;;;;;;;;1.70;86.90;;;0.29;81.15;97188.22;5055877;28;19920;-88
2022/12/31 01:44:50;;;;;;;;;;;1.70;86.90;;;0.29;80.94;97207.09;5055731;28;20230;-88
2022/12/31 01:47:25;;;;;;;;;;;1.70;86.90;;;0.30;80.95;97203.38;5055267;28;19955;-88
2022/12/31 01:49:54;;;;;;;;;;;1.70;87.00;;;0.29;81.17;97206.22;5072399;28;19924;-88
2022/12/31 01:52:23;;;;;;;;;;;1.70;86.90;;;0.28;80.93;97200.03;5072344;28;19920;-88
2022/12/31 01:54:57;;;;;;;;;;;1.70;87.00;;;0.29;81.13;97199.00;5055133;28;19927;-89
2022/12/31 01:57:24;;;;;;;;;;;1.70;86.90;;;0.30;80.76;97197.13;5072134;28;19921;-88
2022/12/31 01:59:52;;;;;;;;;;;1.70;86.90;;;0.29;81.11;97195.47;5071882;28;19920;-88
2022/12/31 02:02:22;;;;;;;;;;;1.70;86.90;;;0.30;81.08;97202.53;5073452;28;19921;-88
2022/12/31 02:04:50;;;;;;;;;;;1.70;87.00;;;0.28;80.92;97193.78;5071812;28;19927;-88
2022/12/31 02:07:18;;;;;;;;;;;1.70;86.90;;;0.30;80.66;97194.44;5055501;28;19927;-88
2022/12/31 02:09:46;;;;;;;;;;;1.70;87.70;;;0.28;81.33;97197.31;5055564;28;19921;-89
2022/12/31 02:12:14;;;;;;;;;;;1.70;87.00;;;0.30;80.92;97200.69;5055469;28;19921;-88
2022/12/31 02:14:42;;;;;;;;;;;1.70;86.90;;;0.28;80.78;97194.63;5071302;28;20116;-88
2022/12/31 02:17:14;;;;;;;;;;;1.70;86.90;;;0.28;81.16;97186.56;5071946;28;20224;-88
2022/12/31 02:19:56;;;;;;;;;;;1.70;86.90;;;0.29;81.09;97190.06;5055564;28;19926;-88
2022/12/31 02:22:32;;;;;;;;;;;1.70;86.90;;;0.29;80.86;97196.31;5055280;28;19925;-88
2022/12/31 02:25:14;;;;;;;;;;;1.70;86.90;;;0.29;80.94;97190.06;5054737;28;19929;-88
2022/12/31 02:27:50;;;;;;;;;;;1.70;86.90;;;0.30;80.88;97197.13;5088873;28;19920;-88
2022/12/31 02:30:20;;;;;;;;;;;1.70;87.00;;;0.29;81.08;97196.31;5071875;28;19920;-88
2022/12/31 02:32:58;;;;;;;;;;;1.70;86.90;;;0.30;81.11;97192.59;5054879;28;20481;-88
2022/12/31 02:35:28;;;;;;;;;;;1.70;86.90;;;0.30;81.25;97198.00;5071383;28;19920;-88
2022/12/31 02:38:00;;;;;;;;;;;1.70;86.90;;;0.28;81.06;97186.56;5071706;28;19921;-88
2022/12/31 02:40:28;;;;;;;;;;;1.70;86.90;;;0.28;81.16;97183.88;5071642;28;20212;-87
2022/12/31 02:42:56;;;;;;;;;;;1.70;86.90;;;0.29;80.96;97187.38;5055208;28;20124;-88
2022/12/31 02:45:28;;;;;;;;;;;1.70;86.90;;;0.30;80.83;97189.06;5071112;28;19927;-88
2022/12/31 02:48:12;;;;;;;;;;;1.70;86.90;;;0.30;81.05;97192.59;5054698;28;19921;-88
2022/12/31 02:50:54;;;;;;;;;;;1.70;86.90;;;0.29;81.05;97188.22;5071662;28;19921;-88
2022/12/31 02:53:30;;;;;;;;;;;1.70;86.90;;;0.29;81.27;97185.53;5072321;28;19920;-89
2022/12/31 02:56:01;;;;;;;;;;;1.70;86.90;;;0.30;80.93;97192.59;5054429;28;19920;-89
2022/12/31 03:02:12;;;;;;;;;;;1.70;86.90;;;0.29;81.16;97196.31;5053265;28;19927;-88
2022/12/31 03:06:52;;;;;;;;;;;1.70;87.00;;;0.30;81.34;97192.59;5050414;28;19920;-88
2022/12/31 03:09:20;;;;;;;;;;;1.70;87.00;;;0.31;81.14;97201.50;5054587;28;20119;-88
2022/12/31 03:14:33;;;;;;;;;;;1.70;86.90;;;0.30;80.86;97203.38;5070817;28;19921;-88
2022/12/31 03:17:03;;;;;;;;;;;1.70;87.00;;;0.29;81.18;97208.94;5054144;28;19935;-87
2022/12/31 03:22:27;;;;;;;;;;;1.70;87.00;;;0.30;81.07;97197.13;5088022;28;20116;-87
2022/12/31 03:27:43;;;;;;;;;;;1.70;87.00;;;0.30;80.90;97206.06;5071109;28;19927;-88
2022/12/31 03:30:12;;;;;;;;;;;1.70;87.10;;;0.31;81.13;97201.50;5026641;23;19922;-80
2022/12/31 03:32:41;;;;;;;;;;;1.70;87.10;;;0.31;81.02;97206.91;4991799;28;19922;-80
2022/12/31 03:35:10;;;;;;;;;;;1.70;87.00;;;0.31;81.07;97209.59;4991085;28;20116;-80
2022/12/31 03:37:38;;;;;;;;;;;1.70;87.00;;;0.29;81.03;97207.09;4975554;28;19977;-80
2022/12/31 03:40:07;;;;;;;;;;;1.70;87.10;;;0.30;81.03;97208.75;5007817;28;19922;-80
2022/12/31 03:42:35;;;;;;;;;;;1.70;87.10;;;0.31;81.11;97212.28;4991308;28;19922;-80
2022/12/31 03:45:04;;;;;;;;;;;1.70;87.10;;;0.30;81.00;97214.16;4991181;28;20113;-80
2022/12/31 03:47:32;;;;;;;;;;;1.70;87.10;;;0.32;81.05;97218.53;4991529;28;19930;-80
2022/12/31 03:50:01;;;;;;;;;;;1.70;87.10;;;0.30;81.19;97221.38;5006978;28;19921;-80
2022/12/31 03:52:29;;;;;;;;;;;1.70;87.10;;;0.30;81.27;97224.91;5010874;28;19929;-80
2022/12/31 03:54:57;;;;;;;;;;;1.70;87.20;;;0.31;81.31;97228.44;4994106;28;19921;-80
2022/12/31 03:57:25;;;;;;;;;;;1.70;87.20;;;0.31;81.14;97228.44;4994339;28;19936;-80
2022/12/31 03:59:52;;;;;;;;;;;1.70;87.20;;;0.29;81.42;97231.31;4993449;28;19921;-80
2022/12/31 04:02:20;;;;;;;;;;;1.70;87.10;;;0.30;81.25;97229.44;5011061;28;19928;-80
2022/12/31 04:04:48;;;;;;;;;;;1.70;87.20;;;0.30;81.12;97227.63;5009948;28;19926;-80
2022/12/31 04:07:18;;;;;;;;;;;1.70;87.10;;;0.29;81.06;97217.84;4994325;28;19928;-80
2022/12/31 04:09:45;;;;;;;;;;;1.70;87.20;;;0.29;81.18;97225.94;5011330;28;20124;-80
2022/12/31 04:12:13;;;;;;;;;;;1.70;87.20;;;0.30;81.00;97229.44;5011957;28;19921;-80
2022/12/31 04:14:41;;;;;;;;;;;1.70;87.20;;;0.29;81.28;97228.63;5009721;28;20311;-80
2022/12/31 04:17:09;;;;;;;;;;;1.70;87.20;;;0.31;81.17;97228.44;4994377;28;20019;-80
2022/12/31 04:19:37;;;;;;;;;;;1.70;87.20;;;0.30;81.20;97224.91;5010182;28;19921;-80
2022/12/31 04:22:05;;;;;;;;;;;1.70;87.20;;;0.29;81.21;97225.94;5010533;28;19928;-80
2022/12/31 04:24:34;;;;;;;;;;;1.70;87.20;;;0.30;81.14;97232.16;4993938;28;19921;-80
2022/12/31 04:27:02;;;;;;;;;;;1.70;87.20;;;0.30;81.20;97232.16;4993962;28;19928;-80
2022/12/31 04:29:30;;;;;;;;;;;1.70;87.20;;;0.29;81.34;97236.72;5010239;28;19922;-80
2022/12/31 04:31:58;;;;;;;;;;;1.70;87.20;;;0.29;81.15;97236.72;5011733;28;19921;-80
2022/12/31 04:34:26;;;;;;;;;;;1.70;87.20;;;0.29;81.21;97242.09;4993684;28;20116;-80
2022/12/31 04:36:54;;;;;;;;;;;1.70;87.20;;;0.29;81.14;97234.00;5010099;28;19921;-81
2022/12/31 04:39:22;;;;;;;;;;;1.70;87.20;;;0.29;81.16;97243.94;5011302;28;19922;-80
2022/12/31 04:41:52;;;;;;;;;;;1.70;87.20;;;0.29;81.35;97247.47;4994039;28;19928;-80
2022/12/31 04:44:20;;;;;;;;;;;1.70;87.20;;;0.29;81.43;97243.94;5009685;28;19928;-80
2022/12/31 04:46:47;;;;;;;;;;;1.70;87.20;;;0.29;81.38;97244.78;5010111;28;20112;-80
2022/12/31 04:49:15;;;;;;;;;;;1.70;87.30;;;0.29;81.21;97236.72;5010045;28;19921;-80
2022/12/31 04:51:43;;;;;;;;;;;1.70;87.20;;;0.29;81.16;97228.63;5010228;28;19941;-80
2022/12/31 04:54:11;;;;;;;;;;;1.70;87.40;;;0.29;81.29;97234.00;5009822;28;19928;-80
2022/12/31 04:56:39;;;;;;;;;;;1.70;87.30;;;0.29;81.36;97239.41;4993458;28;19921;-80
2022/12/31 04:59:09;;;;;;;;;;;1.70;87.30;;;0.29;81.51;97244.78;5009805;28;19928;-80
2022/12/31 05:01:38;;;;;;;;;;;1.70;87.30;;;0.28;81.29;97243.13;5009893;28;19927;-80
2022/12/31 05:04:06;;;;;;;;;;;1.70;87.40;;;0.29;81.31;97243.94;4993479;28;19922;-80
2022/12/31 05:06:33;;;;;;;;;;;1.70;87.30;;;0.28;81.27;97248.50;5009827;28;19922;-80
2022/12/31 05:09:02;;;;;;;;;;;1.70;87.40;;;0.29;81.38;97236.72;4993833;28;19928;-80
2022/12/31 05:11:30;;;;;;;;;;;1.60;87.30;;;0.28;81.45;97248.50;4993777;28;19922;-80
2022/12/31 05:13:58;;;;;;;;;;;1.70;87.40;;;0.29;81.40;97254.72;5009875;28;20187;-80
2022/12/31 05:16:27;;;;;;;;;;;1.60;87.20;;;0.29;81.46;97257.41;5009514;28;19921;-80
2022/12/31 05:18:55;;;;;;;;;;;1.60;87.20;;;0.29;81.43;97270.88;5009730;28;19922;-80
2022/12/31 05:21:23;;;;;;;;;;;1.70;87.40;;;0.29;81.47;97274.41;5010990;28;19922;-80
2022/12/31 05:23:51;;;;;;;;;;;1.60;87.20;;;0.28;81.78;97278.13;4996861;28;19922;-80
2022/12/31 05:26:19;;;;;;;;;;;1.70;87.40;;;0.29;81.51;97277.13;4996441;28;19925;-80
2022/12/31 05:28:47;;;;;;;;;;;1.70;87.40;;;0.28;81.36;97270.03;4996628;28;19922;-81
2022/12/31 05:31:15;;;;;;;;;;;1.60;87.30;;;0.30;81.38;97283.31;5012921;28;19928;-80
2022/12/31 05:33:45;;;;;;;;;;;1.70;87.40;;;0.29;81.60;97271.72;4996398;28;19928;-80
2022/12/31 05:36:13;;;;;;;;;;;1.70;87.50;;;0.28;81.43;97275.44;5012572;28;19921;-81
2022/12/31 05:38:41;;;;;;;;;;;1.70;87.50;;;0.28;81.58;97280.81;4996425;28;19930;-80
2022/12/31 05:41:10;;;;;;;;;;;1.70;87.40;;;0.30;81.52;97283.31;5029327;28;19928;-80
2022/12/31 05:43:38;;;;;;;;;;;1.70;87.40;;;0.29;81.25;97287.03;5013481;28;19921;-80
2022/12/31 05:46:06;;;;;;;;;;;1.70;87.40;;;0.29;81.54;97282.50;5012311;28;19921;-80
2022/12/31 05:48:34;;;;;;;;;;;1.70;87.40;;;0.29;81.42;97295.97;5013921;28;19928;-80
2022/12/31 05:51:03;;;;;;;;;;;1.70;87.50;;;0.29;81.60;97298.66;5012555;28;20239;-80
2022/12/31 05:53:33;;;;;;;;;;;1.70;87.50;;;0.30;81.53;97294.94;4996255;28;20220;-80
2022/12/31 05:56:01;;;;;;;;;;;1.70;87.50;;;0.30;81.80;97294.94;4996222;28;19921;-80
2022/12/31 05:58:28;;;;;;;;;;;1.70;87.50;;;0.30;81.54;97294.09;5013326;28;19929;-80
2022/12/31 06:00:56;;;;;;;;;;;1.70;87.50;;;0.29;81.48;97308.56;5013711;28;19922;-80
2022/12/31 06:03:24;;;;;;;;;;;1.70;87.50;;;0.29;81.69;97293.28;4996158;28;19921;-81
2022/12/31 06:05:52;;;;;;;;;;;1.70;87.50;;;0.29;81.52;97287.88;5013054;28;19921;-80
2022/12/31 06:08:22;;;;;;;;;;;1.70;87.50;;;0.31;81.52;97303.84;5013604;28;20101;-80
2022/12/31 06:10:50;;;;;;;;;;;1.70;87.60;;;0.30;81.24;97288.72;5012563;28;19948;-81
2022/12/31 06:13:18;;;;;;;;;;;1.70;87.50;;;0.30;81.42;97294.09;4996116;28;20189;-80
2022/12/31 06:15:46;;;;;;;;;;;1.70;87.50;;;0.30;81.49;97313.81;4995685;28;19921;-81
2022/12/31 06:18:14;;;;;;;;;;;1.70;87.50;;;0.31;81.57;97303.84;5012336;28;19929;-80
2022/12/31 06:20:42;;;;;;;;;;;1.70;87.60;;;0.31;81.41;97301.16;4995814;28;19921;-80
2022/12/31 06:23:10;;;;;;;;;;;1.70;87.40;;;0.32;81.31;97296.63;5012352;28;20110;-81
2022/12/31 06:25:39;;;;;;;;;;;1.70;87.50;;;0.30;81.45;97297.66;5011610;28;20098;-80
2022/12/31 06:28:07;;;;;;;;;;;1.70;87.40;;;0.30;81.59;97297.66;4989365;28;19922;-81
2022/12/31 06:30:35;;;;;;;;;;;1.70;87.50;;;0.30;81.43;97299.47;4972874;28;20109;-80
2022/12/31 06:33:03;;;;;;;;;;;1.70;87.40;;;0.32;81.60;97312.78;4989566;28;19922;-80
2022/12/31 06:35:30;;;;;;;;;;;1.70;87.40;;;0.32;81.40;97313.63;4988806;28;19936;-80
2022/12/31 06:37:58;;;;;;;;;;;1.70;87.40;;;0.33;81.61;97314.44;4989412;28;19922;-81
2022/12/31 06:40:26;;;;;;;;;;;1.70;87.50;;;0.33;81.55;97322.50;4988984;28;19929;-80
2022/12/31 06:42:55;;;;;;;;;;;1.70;87.40;;;0.32;81.49;97324.38;4973010;28;19928;-80
2022/12/31 06:45:23;;;;;;;;;;;1.70;87.40;;;0.33;81.56;97322.50;4988495;28;19922;-80
2022/12/31 06:47:51;;;;;;;;;;;1.70;87.40;;;0.33;81.48;97328.75;4972926;28;19926;-80
2022/12/31 06:50:19;;;;;;;;;;;1.70;87.40;;;0.34;81.63;97324.19;4973309;28;19922;-80
2022/12/31 06:52:47;;;;;;;;;;;1.70;87.50;;;0.35;81.39;97333.97;5000535;28;19921;-80
2022/12/31 06:55:16;;;;;;;;;;;1.70;87.40;;;0.36;81.21;97335.63;5011025;28;19921;-80
2022/12/31 06:57:44;;;;;;;;;;;1.70;87.40;;;0.35;81.38;97342.91;5011872;28;19921;-80
2022/12/31 07:00:16;;;;;;;;;;;1.70;87.40;;;0.37;81.46;97348.09;5011455;28;19952;-81
2022/12/31 07:02:56;;;;;;;;;;;1.70;87.40;;;0.37;81.40;97348.09;5011780;28;19921;-80
2022/12/31 07:05:30;;;;;;;;;;;1.70;87.70;;;0.38;81.42;97347.06;4994835;28;20097;-80
2022/12/31 07:08:10;;;;;;;;;;;1.70;87.40;;;0.38;81.52;97347.06;5011753;28;19922;-80
2022/12/31 07:10:44;;;;;;;;;;;1.80;87.40;;;0.38;81.46;97357.84;5011191;28;19928;-81
2022/12/31 07:13:23;;;;;;;;;;;1.70;87.30;;;0.38;81.43;97355.16;5011471;28;19928;-80
2022/12/31 07:16:00;;;;;;;;;;;1.80;87.40;;;0.36;81.53;97352.66;4994735;28;19921;-81
2022/12/31 07:18:32;;;;;;;;;;;1.80;87.30;;;0.39;81.38;97370.31;4994933;28;19928;-80
2022/12/31 07:21:00;;;;;;;;;;;1.80;87.40;;;0.38;81.62;97368.63;5012420;28;19928;-80
2022/12/31 07:23:29;;;;;;;;;;;1.80;87.30;;;0.38;81.33;97368.63;5011059;28;19921;-80
2022/12/31 07:26:00;;;;;;;;;;;1.80;87.40;;;0.38;81.60;97374.88;5011151;28;19921;-80
2022/12/31 07:28:37;;;;;;;;;;;1.80;87.30;;;0.39;81.37;97373.00;5011169;28;19921;-80
2022/12/31 07:31:07;;;;;;;;;;;1.80;87.30;;;0.39;81.32;97368.44;5011267;28;20205;-80
2022/12/31 07:33:43;;;;;;;;;;;1.80;87.30;;;0.40;81.17;97367.44;5012168;28;19928;-80
2022/12/31 07:36:16;;;;;;;;;;;1.80;87.20;;;0.39;81.27;97371.13;5010840;28;19928;-80
2022/12/31 07:38:49;;;;;;;;;;;1.80;87.20;;;0.40;81.18;97370.13;4994712;28;19921;-80
2022/12/31 07:41:21;;;;;;;;;;;1.80;87.20;;;0.41;81.35;97377.19;4994820;28;19921;-80
2022/12/31 07:43:54;;;;;;;;;;;1.80;87.20;;;0.42;81.25;97368.09;5010469;28;20121;-80
2022/12/31 07:46:26;;;;;;;;;;;1.80;87.10;;;0.43;81.25;97380.53;5010662;28;19925;-80
2022/12/31 07:48:55;;;;;;;;;;;1.80;87.10;;;0.44;80.98;97373.31;4994562;28;19928;-81
2022/12/31 07:51:23;;;;;;;;;;;1.80;87.00;;;0.45;80.94;97380.38;4994658;28;19921;-80
2022/12/31 07:53:51;;;;;;;;;;;1.80;86.90;;;0.47;81.09;97374.81;5010642;28;19922;-80
2022/12/31 07:56:19;;;;;;;;;;;1.80;86.90;;;0.48;81.14;97371.09;5010280;28;20116;-80
2022/12/31 07:59:02;;;;;;;;;;;1.80;86.90;;;0.48;80.95;97377.31;5011719;28;19939;-80
2022/12/31 08:01:40;;;;;;;;;;;1.90;86.90;;;0.49;81.07;97376.31;4994181;28;19921;-80
2022/12/31 08:04:10;;;;;;;;;;;1.90;86.90;;;0.50;81.05;97377.16;4994485;28;19921;-80
2022/12/31 08:06:41;;;;;;;;;;;1.90;86.90;;;0.52;81.02;97384.03;4994139;28;20117;-80
2022/12/31 08:09:13;;;;;;;;;;;1.90;86.80;;;0.53;81.07;97379.47;5011710;28;19921;-80
2022/12/31 08:11:42;;;;;;;;;;;1.90;86.70;;;0.53;80.82;97380.34;5010653;28;19927;-80
2022/12/31 08:14:14;;;;;;;;;;;1.90;86.60;;;0.55;80.58;97388.22;4994082;28;19922;-80
2022/12/31 08:16:44;;;;;;;;;;;1.90;86.60;;;0.55;80.51;97383.69;4993868;28;19922;-80
2022/12/31 08:19:14;;;;;;;;;;;1.90;86.60;;;0.57;80.68;97381.66;5010538;28;19928;-80
2022/12/31 08:21:45;;;;;;;;;;;1.90;86.60;;;0.58;80.91;97383.31;5011606;28;19928;-80
2022/12/31 08:24:15;;;;;;;;;;;2.00;86.60;;;0.63;80.84;97379.25;4993858;28;19921;-80
2022/12/31 08:26:47;;;;;;;;;;;2.00;86.70;;;0.68;80.77;97388.47;4994048;28;19921;-80
2022/12/31 08:29:25;;;;;;;;;;;2.00;86.70;;;0.74;80.57;97381.53;4993860;28;19928;-80
2022/12/31 08:31:58;;;;;;;;;;;2.10;86.60;;;0.79;80.47;97373.75;5010559;28;19922;-80
2022/12/31 08:34:29;;;;;;;;;;;2.10;86.60;;;0.83;80.76;97375.09;4993859;28;19922;-80
2022/12/31 08:37:00;;;;;;;;;;;2.20;86.40;;;0.89;80.58;97382.44;5011323;28;19922;-80
2022/12/31 08:39:35;;;;;;;;;;;2.20;86.40;;;0.94;80.46;97386.47;4993937;28;19921;-80
2022/12/31 08:42:04;;;;;;;;;;;2.30;86.40;;;0.97;80.23;97380.72;4993972;28;19921;-80
2022/12/31 08:44:35;;;;;;;;;;;2.30;86.20;;;0.98;79.77;97393.16;5010342;28;19927;-80
2022/12/31 08:47:09;;;;;;;;;;;2.30;86.00;;;0.96;80.24;97385.25;5026217;28;19927;-80
2022/12/31 08:49:38;;;;;;;;;;;2.30;85.80;;;0.99;80.17;97392.13;5010150;28;19928;-80
2022/12/31 08:52:18;;;;;;;;;;;2.30;85.90;;;1.01;79.97;97382.03;4993831;28;20235;-80
2022/12/31 08:54:46;;;;;;;;;;;2.40;85.80;;;1.03;79.81;97380.81;5009696;28;19943;-80
2022/12/31 08:57:18;;;;;;;;;;;2.40;85.80;;;1.07;79.89;97381.31;5013974;28;20098;-80
2022/12/31 08:59:49;;;;;;;;;;;2.40;85.70;;;1.09;79.71;97384.69;5013520;28;20125;-80
2022/12/31 09:02:33;;;;;;;;;;;2.50;85.70;;;1.13;79.99;97385.97;5013507;28;19929;-81
2022/12/31 09:05:08;;;;;;;;;;;2.50;85.60;;;1.14;79.78;97368.75;4997000;28;19929;-80
2022/12/31 09:07:37;;;;;;;;;;;2.50;85.50;;;1.17;79.54;97368.41;5013361;28;20137;-81
2022/12/31 09:10:15;;;;;;;;;;;2.50;85.40;;;1.20;79.64;97369.91;4997024;28;19928;-80
2022/12/31 09:12:58;;;;;;;;;;;2.60;85.20;;;1.21;79.35;97376.97;4997075;28;19921;-80
2022/12/31 09:15:30;;;;;;;;;;;2.60;85.00;;;1.23;79.21;97375.75;5012333;28;20213;-81
2022/12/31 09:18:00;;;;;;;;;;;2.60;84.90;;;1.22;78.97;97379.50;5013611;28;19928;-80
2022/12/31 09:20:33;;;;;;;;;;;2.60;84.80;;;1.19;79.11;97374.47;5012970;28;19921;-80
2022/12/31 09:23:02;;;;;;;;;;;2.60;84.70;;;1.16;79.29;97372.13;4996931;28;19927;-81
2022/12/31 09:25:31;;;;;;;;;;;2.50;84.80;;;1.13;79.68;97369.78;4996351;28;19931;-80
2022/12/31 09:28:15;;;;;;;;;;;2.50;84.80;;;1.10;79.62;97369.31;4996739;28;20012;-81
2022/12/31 09:30:53;;;;;;;;;;;2.50;85.00;;;1.06;79.48;97358.88;4996996;28;19936;-81
2022/12/31 09:33:36;;;;;;;;;;;2.50;85.20;;;1.04;80.07;97368.19;5013891;28;19921;-81
2022/12/31 09:36:06;;;;;;;;;;;2.40;85.30;;;1.02;79.64;97364.81;4994484;28;19988;-81
2022/12/31 09:38:45;;;;;;;;;;;2.40;85.30;;;1.00;79.91;97367.72;4980407;28;19928;-81
2022/12/31 09:41:16;;;;;;;;;;;2.40;85.40;;;0.98;79.95;97372.44;4976800;28;19922;-80
2022/12/31 09:44:17;;;;;;;;;;;2.40;85.60;;;0.96;80.18;97362.88;4975610;28;20122;-81
2022/12/31 09:47:23;;;;;;;;;;;2.40;85.60;;;0.96;80.34;97363.69;4973814;28;19922;-81
2022/12/31 09:50:22;;;;;;;;;;;2.40;85.60;;;0.95;80.05;97356.63;4990013;28;20117;-80
2022/12/31 09:53:12;;;;;;;;;;;2.30;85.70;;;0.94;80.21;97359.50;4973869;28;19928;-81
2022/12/31 09:55:42;;;;;;;;;;;2.30;85.80;;;0.93;80.18;97357.81;4957898;28;20217;-81
2022/12/31 09:58:34;;;;;;;;;;;2.30;85.80;;;0.91;80.27;97350.75;4990017;28;19922;-81
2022/12/31 10:01:05;;;;;;;;;;;2.30;85.90;;;0.93;80.29;97347.88;4989500;28;19929;-81
2022/12/31 10:03:45;;;;;;;;;;;2.30;86.00;;;0.93;80.06;97347.88;4974581;28;20002;-81
2022/12/31 10:06:21;;;;;;;;;;;2.30;86.00;;;0.95;80.43;97350.41;5005419;28;19930;-81
2022/12/31 10:09:15;;;;;;;;;;;2.30;86.00;;;0.97;80.53;97333.03;4976678;28;20206;-81
2022/12/31 10:11:57;;;;;;;;;;;2.30;85.90;;;1.01;80.01;97338.88;4986589;28;19922;-81
2022/12/31 10:14:34;;;;;;;;;;;2.40;85.80;;;1.02;80.25;97330.63;5008962;28;19922;-81
2022/12/31 10:17:08;;;;;;;;;;;2.40;85.70;;;1.05;80.01;97332.09;5012259;28;19922;-81
2022/12/31 10:19:44;;;;;;;;;;;2.40;85.70;;;1.06;80.20;97331.91;5012189;28;20098;-81
2022/12/31 10:22:26;;;;;;;;;;;2.40;85.50;;;1.08;79.81;97326.38;5012388;28;19921;-80
2022/12/31 10:25:24;;;;;;;;;;;2.50;85.60;;;1.10;79.77;97332.38;4994959;28;19937;-81
2022/12/31 10:27:55;;;;;;;;;;;2.50;85.50;;;1.11;79.69;97327.84;4996007;28;20209;-81
2022/12/31 10:30:25;;;;;;;;;;;2.50;85.40;;;1.12;79.75;97329.53;5028306;28;19922;-81
2022/12/31 10:33:16;;;;;;;;;;;2.50;85.30;;;1.12;79.65;97330.34;5028606;28;19928;-81
2022/12/31 10:35:51;;;;;;;;;;;2.50;85.30;;;1.13;79.67;97320.41;5011728;28;20132;-80
2022/12/31 10:38:28;;;;;;;;;;;2.50;85.20;;;1.11;79.81;97317.88;5012011;28;19921;-81
2022/12/31 10:41:30;;;;;;;;;;;2.50;85.30;;;1.13;79.69;97321.25;4995505;28;19935;-80
2022/12/31 10:44:15;;;;;;;;;;;2.50;85.20;;;1.13;79.28;97331.19;5007897;28;19921;-81
2022/12/31 10:46:58;;;;;;;;;;;2.50;85.20;;;1.13;79.95;97325.81;4995147;28;19928;-81
2022/12/31 10:50:02;;;;;;;;;;;2.50;85.20;;;1.13;80.10;97326.63;5011512;28;20116;-80
2022/12/31 10:53:03;;;;;;;;;;;2.50;85.30;;;1.13;79.66;97321.25;4989336;28;19922;-80
2022/12/31 10:55:59;;;;;;;;;;;2.50;85.40;;;1.12;79.62;97308.78;4979015;28;20106;-81
2022/12/31 10:58:46;;;;;;;;;;;2.50;85.30;;;1.13;79.55;97317.72;4995599;28;19921;-81
2022/12/31 11:01:17;;;;;;;;;;;2.50;85.30;;;1.13;79.56;97310.44;5011454;28;19936;-81
2022/12/31 11:04:22;;;;;;;;;;;2.50;85.20;;;1.13;79.97;97310.44;5027861;28;20136;-81
2022/12/31 11:07:26;;;;;;;;;;;2.50;85.20;;;1.14;79.64;97306.72;4993690;28;19928;-81
2022/12/31 11:10:03;;;;;;;;;;;2.50;85.30;;;1.14;79.84;97300.53;4995082;28;19928;-80
2022/12/31 11:13:07;;;;;;;;;;;2.50;85.20;;;1.14;80.01;97300.53;4995272;28;19922;-81
2022/12/31 11:15:59;;;;;;;;;;;2.50;85.20;;;1.15;80.10;97300.31;4964217;28;20213;-81
2022/12/31 11:18:31;;;;;;;;;;;2.50;85.20;;;1.15;79.45;97296.81;4978164;28;19921;-81
2022/12/31 11:21:17;;;;;;;;;;;2.50;85.20;;;1.15;79.84;97292.22;4978812;28;19928;-81
2022/12/31 11:23:47;;;;;;;;;;;2.50;85.20;;;1.14;79.84;97292.44;5011191;28;19928;-81
2022/12/31 11:26:19;;;;;;;;;;;2.50;85.20;;;1.14;79.49;97295.13;4985880;28;19929;-81
2022/12/31 11:29:01;;;;;;;;;;;2.50;85.20;;;1.12;80.22;97298.00;4956155;28;19923;-81
2022/12/31 11:31:42;;;;;;;;;;;2.50;85.20;;;1.09;79.59;97286.72;4972078;28;19922;-81
2022/12/31 11:34:40;;;;;;;;;;;2.50;85.40;;;1.07;79.77;97290.44;4972300;28;19983;-81
2022/12/31 11:37:28;;;;;;;;;;;2.50;85.50;;;1.05;80.06;97297.06;4972362;28;19929;-81
2022/12/31 11:40:14;;;;;;;;;;;2.40;85.50;;;1.04;80.21;97300.78;4956122;28;19922;-81
2022/12/31 11:42:46;;;;;;;;;;;2.40;85.60;;;1.03;80.05;97293.69;4971759;28;19922;-81
2022/12/31 11:45:20;;;;;;;;;;;2.40;85.80;;;1.02;80.31;97297.41;4974608;28;19922;-80
2022/12/31 11:47:54;;;;;;;;;;;2.40;85.80;;;1.01;80.55;97295.75;4975543;28;19922;-81
2022/12/31 11:50:28;;;;;;;;;;;2.40;85.90;;;0.99;80.21;97301.31;4959066;28;20133;-81
2022/12/31 11:53:06;;;;;;;;;;;2.40;86.00;;;0.99;80.47;97303.16;4975154;28;19922;-81
2022/12/31 11:56:11;;;;;;;;;;;2.40;86.00;;;0.98;80.49;97302.34;4974393;28;19944;-81
2022/12/31 11:58:40;;;;;;;;;;;2.40;86.10;;;0.98;80.48;97306.88;4973347;28;19922;-81
2022/12/31 12:01:11;;;;;;;;;;;2.40;86.10;;;0.97;80.29;97310.63;4975210;28;19921;-80
2022/12/31 12:03:42;;;;;;;;;;;2.40;86.20;;;0.97;80.65;97305.22;4974894;28;19930;-80
2022/12/31 12:06:11;;;;;;;;;;;2.30;86.30;;;0.97;80.66;97300.66;4958667;28;19928;-81
2022/12/31 12:08:40;;;;;;;;;;;2.40;86.30;;;0.99;80.85;97313.94;4978125;28;20312;-81
2022/12/31 12:11:11;;;;;;;;;;;2.30;86.30;;;0.98;80.75;97301.50;4977972;28;19922;-80
2022/12/31 12:13:39;;;;;;;;;;;2.40;86.20;;;0.97;80.53;97299.84;4978159;28;19936;-81